createdAt,value
2022-12-26T00:00:07.342Z,55.6
2022-12-26T00:05:00.808Z,55.4
2022-12-26T00:10:01.093Z,55.4
2022-12-26T00:15:01.597Z,55.4
2022-12-26T00:20:01.667Z,55.4
2022-12-26T00:25:01.175Z,55.5
2022-12-26T00:35:01.114Z,55.5
2022-12-26T00:45:00.588Z,55.6
2022-12-26T00:55:01.230Z,55.6
2022-12-26T01:05:03.304Z,55.5
2022-12-26T01:10:01.873Z,52.5
2022-12-26T01:15:04.200Z,51.3
2022-12-26T01:25:02.560Z,52.4
2022-12-26T01:30:02.088Z,52.6
2022-12-26T01:35:01.376Z,52.7
2022-12-26T01:45:01.350Z,53.1
2022-12-26T01:55:01.333Z,53.1
2022-12-26T02:00:02.468Z,53.2
2022-12-26T02:05:01.599Z,53.2
2022-12-26T02:15:01.328Z,53.1
2022-12-26T02:20:02.266Z,53.1
2022-12-26T02:25:01.169Z,53.1
2022-12-26T02:30:01.188Z,53.0
2022-12-26T02:35:01.634Z,52.9
2022-12-26T02:40:01.742Z,52.9
2022-12-26T02:45:01.833Z,52.8
2022-12-26T02:50:01.146Z,52.8
2022-12-26T02:55:01.372Z,52.7
2022-12-26T03:00:01.544Z,52.7
2022-12-26T03:05:01.122Z,52.7
2022-12-26T03:15:01.747Z,52.6
2022-12-26T03:20:01.906Z,52.6
2022-12-26T03:25:01.387Z,52.6
2022-12-26T03:30:00.514Z,52.5
2022-12-26T03:35:01.165Z,52.5
2022-12-26T03:40:01.643Z,52.5
2022-12-26T03:45:01.631Z,52.5
2022-12-26T03:55:01.928Z,52.3
2022-12-26T04:00:01.267Z,52.3
2022-12-26T04:05:00.571Z,52.3
2022-12-26T04:15:01.543Z,52.3
2022-12-26T04:20:01.282Z,52.3
2022-12-26T04:25:01.814Z,52.1
2022-12-26T04:30:01.098Z,52.1
2022-12-26T04:35:01.324Z,53.2
2022-12-26T04:40:01.357Z,53.3
2022-12-26T04:45:00.570Z,53.4
2022-12-26T04:55:01.112Z,53.5
2022-12-26T05:00:03.454Z,53.5
2022-12-26T05:05:01.102Z,53.5
2022-12-26T05:15:01.114Z,53.5
2022-12-26T05:25:01.777Z,53.4
2022-12-26T05:30:01.319Z,53.4
2022-12-26T05:35:01.341Z,53.4
2022-12-26T05:40:01.075Z,53.4
2022-12-26T05:45:01.346Z,53.4
2022-12-26T05:55:01.052Z,53.4
2022-12-26T06:05:01.085Z,53.4
2022-12-26T06:10:02.593Z,53.4
2022-12-26T06:15:01.027Z,53.4
2022-12-26T06:25:01.088Z,53.4
2022-12-26T06:30:01.055Z,53.5
2022-12-26T06:35:01.323Z,53.4
2022-12-26T06:45:01.075Z,53.4
2022-12-26T06:55:01.025Z,53.5
2022-12-26T07:00:01.135Z,53.5
2022-12-26T07:05:01.510Z,53.5
2022-12-26T07:10:01.131Z,53.5
2022-12-26T07:15:02.382Z,53.5
2022-12-26T07:25:01.371Z,53.6
2022-12-26T07:30:01.208Z,53.6
2022-12-26T07:35:03.665Z,53.6
2022-12-26T07:45:01.374Z,53.5
2022-12-26T07:50:02.847Z,53.5
2022-12-26T07:55:01.363Z,53.5
2022-12-26T08:00:01.177Z,53.6
2022-12-26T08:05:01.084Z,53.5
2022-12-26T08:10:01.329Z,53.5
2022-12-26T08:15:01.338Z,53.5
2022-12-26T08:25:02.178Z,53.5
2022-12-26T08:30:01.180Z,53.5
2022-12-26T08:35:02.258Z,53.6
2022-12-26T08:45:01.157Z,53.7
2022-12-26T08:50:01.319Z,54.1
2022-12-26T08:55:01.665Z,54.4
2022-12-26T09:05:01.413Z,54.0
2022-12-26T09:10:01.528Z,54.0
2022-12-26T09:15:01.445Z,53.9
2022-12-26T09:25:01.652Z,53.7
2022-12-26T09:30:01.393Z,53.7
2022-12-26T09:35:01.610Z,53.7
2022-12-26T09:40:01.295Z,53.7
2022-12-26T09:45:01.067Z,53.6
2022-12-26T09:50:01.427Z,53.5
2022-12-26T09:55:02.099Z,53.5
2022-12-26T10:05:01.369Z,53.5
2022-12-26T10:10:01.705Z,53.4
2022-12-26T10:15:01.185Z,53.4
2022-12-26T10:20:01.128Z,53.3
2022-12-26T10:25:01.704Z,53.3
2022-12-26T10:30:01.510Z,53.3
2022-12-26T10:35:01.049Z,53.3
2022-12-26T10:45:01.319Z,53.4
2022-12-26T10:50:01.400Z,53.4
2022-12-26T10:55:26.980Z,53.3
2022-12-26T11:05:15.853Z,53.1
2022-12-26T11:10:01.232Z,53.0
2022-12-26T11:15:01.362Z,53.0
2022-12-26T11:25:01.560Z,52.8
2022-12-26T11:35:01.121Z,52.7
2022-12-26T11:45:01.164Z,52.6
2022-12-26T11:50:01.651Z,53.1
2022-12-26T11:55:01.223Z,53.3
2022-12-26T12:05:01.045Z,53.5
2022-12-26T12:10:02.504Z,53.5
2022-12-26T12:15:01.076Z,53.6
2022-12-26T12:25:01.238Z,53.9
2022-12-26T12:30:01.294Z,54.3
2022-12-26T12:35:01.831Z,54.1
2022-12-26T12:40:01.239Z,54.1
2022-12-26T12:45:01.339Z,54.1
2022-12-26T12:50:01.367Z,54.2
2022-12-26T12:55:01.617Z,54.3
2022-12-26T13:05:01.109Z,54.4
2022-12-26T13:10:01.593Z,54.5
2022-12-26T13:15:01.541Z,54.5
2022-12-26T13:25:01.293Z,54.5
2022-12-26T13:30:01.378Z,54.5
2022-12-26T13:35:01.391Z,53.0
2022-12-26T13:45:04.471Z,51.4
2022-12-26T13:50:01.402Z,51.0
2022-12-26T13:55:01.429Z,50.7
2022-12-26T14:05:02.464Z,50.3
2022-12-26T14:10:01.102Z,50.0
2022-12-26T14:15:01.315Z,49.9
2022-12-26T14:25:02.395Z,49.7
2022-12-26T14:30:01.428Z,49.4
2022-12-26T14:35:02.286Z,49.7
2022-12-26T14:45:00.951Z,51.5
2022-12-26T14:50:01.156Z,51.8
2022-12-26T14:55:01.994Z,51.9
2022-12-26T15:00:04.140Z,52.0
2022-12-26T15:05:02.642Z,52.4
2022-12-26T15:10:02.203Z,52.4
2022-12-26T15:15:01.649Z,52.6
2022-12-26T15:25:19.531Z,52.7
2022-12-26T15:30:01.241Z,52.6
2022-12-26T15:35:01.424Z,52.6
2022-12-26T15:45:01.152Z,52.7
2022-12-26T15:50:01.514Z,52.7
2022-12-26T15:55:00.911Z,52.7
2022-12-26T16:05:00.931Z,52.8
2022-12-26T16:10:01.579Z,52.8
2022-12-26T16:15:01.066Z,52.9
2022-12-26T16:25:01.187Z,52.9
2022-12-26T16:30:11.509Z,53.0
2022-12-26T16:35:01.091Z,53.0
2022-12-26T16:40:01.761Z,53.0
2022-12-26T16:45:01.147Z,53.0
2022-12-26T16:50:00.894Z,53.1
2022-12-26T16:55:00.909Z,53.0
2022-12-26T17:00:00.980Z,53.0
2022-12-26T17:05:00.858Z,53.1
2022-12-26T17:10:01.156Z,53.1
2022-12-26T17:15:01.487Z,53.1
2022-12-26T17:25:00.859Z,53.0
2022-12-26T17:30:01.220Z,53.0
2022-12-26T17:35:01.069Z,53.1
2022-12-26T17:40:03.616Z,53.0
2022-12-26T17:45:01.468Z,53.0
2022-12-26T17:50:01.391Z,53.0
2022-12-26T17:55:01.079Z,53.0
2022-12-26T18:05:01.101Z,53.0
2022-12-26T18:10:01.292Z,52.9
2022-12-26T18:15:03.023Z,52.9
2022-12-26T18:25:00.875Z,52.8
2022-12-26T18:30:01.238Z,52.7
2022-12-26T18:35:00.889Z,52.7
2022-12-26T18:45:00.855Z,52.6
2022-12-26T18:50:01.123Z,52.5
2022-12-26T18:55:00.924Z,52.4
2022-12-26T19:05:01.096Z,52.3
2022-12-26T19:10:00.933Z,52.2
2022-12-26T19:15:01.199Z,52.1
2022-12-26T19:25:00.880Z,52.2
2022-12-26T19:30:01.353Z,52.4
2022-12-26T19:35:01.341Z,52.6
2022-12-26T19:45:02.206Z,52.8
2022-12-26T19:50:01.193Z,52.9
2022-12-26T19:55:01.089Z,52.9
2022-12-26T20:05:01.356Z,52.9
2022-12-26T20:10:00.913Z,52.7
2022-12-26T20:15:00.904Z,52.8
2022-12-26T20:25:00.925Z,52.6
2022-12-26T20:30:01.374Z,52.6
2022-12-26T20:35:01.857Z,52.6
2022-12-26T20:45:01.327Z,52.6
2022-12-26T20:50:01.230Z,52.6
2022-12-26T20:55:00.899Z,52.5
2022-12-26T21:05:03.199Z,52.0
2022-12-26T21:10:00.891Z,51.9
2022-12-26T21:15:00.918Z,51.8
2022-12-26T21:25:00.863Z,51.6
2022-12-26T21:30:02.134Z,51.6
2022-12-26T21:35:01.407Z,51.3
2022-12-26T21:45:00.856Z,51.2
2022-12-26T21:50:01.158Z,51.2
2022-12-26T21:55:01.362Z,51.1
2022-12-26T22:05:00.973Z,50.8
2022-12-26T22:10:01.123Z,50.8
2022-12-26T22:15:01.784Z,50.7
2022-12-26T22:25:01.336Z,50.5
2022-12-26T22:30:01.186Z,50.5
2022-12-26T22:35:01.344Z,50.7
2022-12-26T22:45:01.039Z,51.3
2022-12-26T22:55:00.905Z,51.3
2022-12-26T23:00:10.887Z,51.2
2022-12-26T23:05:01.087Z,51.2
2022-12-26T23:15:01.215Z,51.1
2022-12-26T23:25:01.881Z,51.2
2022-12-26T23:35:01.407Z,51.1
2022-12-26T23:40:01.163Z,51.0
2022-12-26T23:45:01.037Z,50.8
2022-12-26T23:55:01.088Z,50.6
